Time;durP1;ratioP1;P1;durP2;ratioP2;P2;SDS_P1;SDS_P2;PMS_P1;PMS_P2;Temp;Humidity;BMP_temperature;BMP_pressure;BME280_temperature;BME280_humidity;BME280_pressure;Samples;Min_cycle;Max_cycle;Signal;HPM_P1;HPM_P2
2021/08/25 00:02:03;;;;;;;5.43;3.15;;;14.10;99.90;;;;;;4989719;28;20030;-74
2021/08/25 00:04:29;;;;;;;6.53;3.33;;;14.10;99.90;;;;;;5009983;28;20038;-75
2021/08/25 00:06:55;;;;;;;8.30;3.63;;;14.00;99.90;;;;;;5001609;28;20061;-74
2021/08/25 00:09:21;;;;;;;8.27;3.30;;;14.00;99.90;;;;;;5001843;28;20029;-75
2021/08/25 00:11:46;;;;;;;5.38;3.15;;;13.90;99.90;;;;;;5002091;28;20077;-77
2021/08/25 00:14:12;;;;;;;6.40;3.75;;;13.90;99.90;;;;;;5002141;28;20023;-77
2021/08/25 00:16:38;;;;;;;7.15;3.40;;;13.90;99.90;;;;;;5002584;28;20022;-77
2021/08/25 00:19:04;;;;;;;5.32;3.50;;;13.90;99.90;;;;;;5014453;28;20026;-77
2021/08/25 00:21:29;;;;;;;5.47;3.20;;;13.90;99.90;;;;;;5004343;28;20113;-77
2021/08/25 00:23:55;;;;;;;5.32;2.83;;;13.90;99.90;;;;;;5021796;28;20026;-77
2021/08/25 00:26:20;;;;;;;8.35;3.38;;;13.80;99.90;;;;;;5004285;28;20025;-78
2021/08/25 00:28:46;;;;;;;6.13;4.03;;;13.90;99.90;;;;;;5004075;28;20472;-76
2021/08/25 00:31:14;;;;;;;9.80;3.45;;;13.80;99.90;;;;;;5020873;28;20071;-76
2021/08/25 00:33:40;;;;;;;6.22;3.90;;;13.80;99.90;;;;;;5021034;28;20045;-76
2021/08/25 00:36:06;;;;;;;8.38;3.70;;;13.70;99.90;;;;;;5021170;28;20026;-76
2021/08/25 00:38:32;;;;;;;6.13;3.78;;;13.70;99.90;;;;;;5020265;28;20064;-77
2021/08/25 00:40:58;;;;;;;8.18;4.03;;;13.70;99.90;;;;;;5020722;28;20040;-77
2021/08/25 00:43:24;;;;;;;7.25;3.78;;;13.70;99.90;;;;;;5021763;28;20034;-77
2021/08/25 00:45:50;;;;;;;6.25;3.40;;;13.70;99.90;;;;;;5020938;28;20037;-76
2021/08/25 00:48:17;;;;;;;7.88;3.95;;;13.70;99.90;;;;;;5003721;28;20056;-77
2021/08/25 00:50:44;;;;;;;10.05;4.47;;;13.70;99.90;;;;;;5021381;28;20108;-77
2021/08/25 00:53:10;;;;;;;8.63;4.22;;;13.70;99.90;;;;;;5003352;28;20037;-77
2021/08/25 00:55:39;;;;;;;6.10;3.22;;;13.60;99.90;;;;;;5020882;28;20022;-77
2021/08/25 00:58:06;;;;;;;6.57;4.00;;;13.60;99.90;;;;;;5021067;28;20062;-77
2021/08/25 01:00:37;;;;;;;8.57;4.07;;;13.60;99.90;;;;;;5010750;28;20054;-77
2021/08/25 01:03:11;;;;;;;6.68;3.40;;;13.60;99.90;;;;;;5001278;28;20469;-77
2021/08/25 01:05:40;;;;;;;8.55;4.15;;;13.60;99.90;;;;;;5002003;28;20456;-77
2021/08/25 01:08:07;;;;;;;6.40;3.83;;;13.50;99.90;;;;;;5001196;28;20022;-77
2021/08/25 01:10:33;;;;;;;6.68;4.30;;;13.50;99.90;;;;;;4983404;28;20465;-77
2021/08/25 01:13:00;;;;;;;7.38;4.45;;;13.50;99.90;;;;;;4999582;28;20014;-77
2021/08/25 01:15:27;;;;;;;8.20;4.55;;;13.40;99.90;;;;;;5013793;28;20014;-76
2021/08/25 01:17:54;;;;;;;7.35;4.32;;;13.40;99.90;;;;;;4983563;28;20029;-76
2021/08/25 01:20:23;;;;;;;9.20;4.65;;;13.40;99.90;;;;;;5001007;28;20022;-76
2021/08/25 01:22:49;;;;;;;14.32;4.35;;;13.40;99.90;;;;;;5000923;28;20022;-76
2021/08/25 01:25:16;;;;;;;6.85;2.88;;;13.40;99.90;;;;;;5001437;28;20025;-76
2021/08/25 01:27:47;;;;;;;5.50;3.92;;;13.30;99.90;;;;;;4983326;28;20073;-76
2021/08/25 01:30:13;;;;;;;5.93;3.38;;;13.30;99.90;;;;;;4999557;28;20499;-76
2021/08/25 01:32:39;;;;;;;8.57;3.90;;;13.30;99.90;;;;;;5000803;28;20022;-76
2021/08/25 01:35:05;;;;;;;7.93;3.80;;;13.30;99.90;;;;;;5000885;28;20019;-76
2021/08/25 01:37:31;;;;;;;8.07;3.28;;;13.20;99.90;;;;;;5000865;28;20117;-77
2021/08/25 01:39:57;;;;;;;6.18;3.00;;;13.20;99.90;;;;;;5020172;28;20504;-76
2021/08/25 01:42:22;;;;;;;6.32;3.33;;;13.20;99.90;;;;;;5009337;28;20095;-76
2021/08/25 01:44:49;;;;;;;6.38;3.03;;;13.10;99.90;;;;;;4983644;28;20018;-76
2021/08/25 01:47:15;;;;;;;5.28;3.47;;;13.00;99.90;;;;;;5001082;28;20050;-76
2021/08/25 01:49:45;;;;;;;5.20;2.97;;;13.00;99.90;;;;;;4999239;28;20109;-76
2021/08/25 01:52:12;;;;;;;4.30;2.72;;;13.00;99.90;;;;;;5000346;28;20098;-76
2021/08/25 01:54:38;;;;;;;5.35;2.72;;;12.90;99.90;;;;;;5000629;28;20381;-76
2021/08/25 01:57:07;;;;;;;5.45;3.13;;;12.90;99.90;;;;;;5000986;28;20038;-76
2021/08/25 01:59:37;;;;;;;4.43;2.55;;;12.80;99.90;;;;;;5000508;28;20033;-76
2021/08/25 02:02:03;;;;;;;4.85;2.80;;;12.80;99.90;;;;;;4982741;28;20030;-75
2021/08/25 02:04:29;;;;;;;5.78;3.75;;;12.70;99.90;;;;;;5007036;28;20022;-75
2021/08/25 02:06:54;;;;;;;6.10;2.85;;;12.70;99.90;;;;;;5020059;28;20032;-76
2021/08/25 02:09:21;;;;;;;7.03;3.05;;;12.70;99.90;;;;;;5002709;28;20025;-76
2021/08/25 02:11:47;;;;;;;6.25;3.85;;;12.70;99.90;;;;;;5002340;28;20021;-76
2021/08/25 02:14:12;;;;;;;4.70;2.90;;;12.70;99.90;;;;;;5019856;28;20022;-76
2021/08/25 02:16:38;;;;;;;5.75;2.30;;;12.60;99.90;;;;;;5002243;28;20024;-76
2021/08/25 02:19:04;;;;;;;4.28;2.70;;;12.60;99.90;;;;;;5007307;28;20038;-76
2021/08/25 02:21:30;;;;;;;6.30;2.95;;;12.60;99.90;;;;;;5000012;28;20025;-76
2021/08/25 02:23:55;;;;;;;4.55;2.88;;;12.60;99.90;;;;;;4982806;28;20095;-76
2021/08/25 02:26:21;;;;;;;7.65;2.78;;;12.60;99.90;;;;;;5000523;28;20022;-75
2021/08/25 02:28:49;;;;;;;18.65;2.60;;;12.60;99.90;;;;;;4999617;28;20031;-76
2021/08/25 02:31:16;;;;;;;10.55;3.58;;;12.70;99.90;;;;;;4982253;28;20396;-76
2021/08/25 02:33:41;;;;;;;6.68;2.90;;;12.70;99.90;;;;;;4982523;28;20113;-76
2021/08/25 02:36:08;;;;;;;12.95;3.78;;;12.70;99.90;;;;;;5002475;28;20061;-76
2021/08/25 02:38:36;;;;;;;13.48;3.13;;;12.70;99.90;;;;;;4999442;28;20034;-76
2021/08/25 02:41:03;;;;;;;11.82;2.78;;;12.70;99.90;;;;;;4999882;28;20080;-76
2021/08/25 02:43:28;;;;;;;9.45;3.65;;;12.80;99.90;;;;;;4999249;28;20105;-76
2021/08/25 02:45:54;;;;;;;10.60;3.40;;;12.80;99.90;;;;;;4999913;28;20448;-76
2021/08/25 02:48:19;;;;;;;10.25;3.72;;;12.80;99.90;;;;;;4999751;28;20102;-76
2021/08/25 02:50:45;;;;;;;15.52;4.03;;;12.80;99.90;;;;;;5000219;28;20018;-76
2021/08/25 02:53:11;;;;;;;11.60;3.45;;;12.80;99.90;;;;;;4999584;28;20025;-76
2021/08/25 02:55:36;;;;;;;10.68;3.17;;;12.80;99.90;;;;;;4999079;28;20045;-76
2021/08/25 02:58:02;;;;;;;10.00;3.47;;;12.80;99.90;;;;;;4999260;28;20044;-76
2021/08/25 03:00:28;;;;;;;7.32;3.22;;;12.80;99.90;;;;;;5003398;28;20037;-76
2021/08/25 03:02:53;;;;;;;6.43;3.17;;;12.80;99.90;;;;;;5018611;28;20022;-76
2021/08/25 03:05:19;;;;;;;6.78;3.22;;;12.80;99.90;;;;;;5017279;28;20018;-76
2021/08/25 03:07:45;;;;;;;10.85;3.35;;;12.80;99.90;;;;;;5018611;28;20554;-76
2021/08/25 03:10:11;;;;;;;12.50;3.92;;;12.80;99.90;;;;;;5001027;28;20030;-76
2021/08/25 03:12:36;;;;;;;5.75;3.08;;;12.80;99.90;;;;;;5001365;28;20388;-76
2021/08/25 03:15:05;;;;;;;5.97;3.13;;;13.10;99.90;;;;;;5000503;28;20022;-75
2021/08/25 03:17:30;;;;;;;4.70;3.45;;;12.90;99.90;;;;;;5016726;28;20431;-75
2021/08/25 03:19:56;;;;;;;4.93;3.40;;;12.90;99.90;;;;;;5018034;28;20026;-76
2021/08/25 03:22:22;;;;;;;9.52;3.63;;;12.90;99.90;;;;;;5018595;28;20468;-76
2021/08/25 03:24:48;;;;;;;4.40;3.38;;;12.90;99.90;;;;;;5018234;28;20491;-76
2021/08/25 03:27:13;;;;;;;7.63;3.78;;;12.90;99.90;;;;;;5018776;28;20116;-76
2021/08/25 03:29:39;;;;;;;8.77;2.65;;;12.90;99.90;;;;;;5017607;28;20018;-76
2021/08/25 03:32:05;;;;;;;16.67;3.25;;;12.90;99.90;;;;;;5000532;28;20041;-76
2021/08/25 03:34:30;;;;;;;8.32;3.42;;;12.80;99.90;;;;;;5018035;28;20033;-76
2021/08/25 03:36:56;;;;;;;8.70;3.40;;;12.90;99.90;;;;;;5018529;28;20029;-76
2021/08/25 03:39:21;;;;;;;10.35;3.15;;;12.90;99.90;;;;;;5017871;28;20025;-75
2021/08/25 03:41:47;;;;;;;11.32;3.33;;;12.80;99.90;;;;;;5000353;28;20018;-76
2021/08/25 03:44:12;;;;;;;4.82;3.50;;;12.80;99.90;;;;;;5017316;28;20112;-76
2021/08/25 03:46:38;;;;;;;9.88;3.70;;;12.80;99.90;;;;;;4999051;28;20062;-76
2021/08/25 03:49:04;;;;;;;20.73;3.50;;;12.80;99.90;;;;;;4998314;28;20030;-76
2021/08/25 03:51:29;;;;;;;12.05;3.30;;;12.80;99.90;;;;;;4998227;28;20035;-76
2021/08/25 03:53:55;;;;;;;6.88;3.00;;;12.70;99.90;;;;;;4997963;28;20019;-76
2021/08/25 03:56:20;;;;;;;4.72;3.25;;;12.70;99.90;;;;;;4998099;28;20177;-76
2021/08/25 03:58:46;;;;;;;8.30;3.35;;;12.70;99.90;;;;;;4997948;28;20587;-76
2021/08/25 04:01:11;;;;;;;6.20;3.25;;;13.20;99.90;;;;;;5003767;28;20132;-76
2021/08/25 04:03:38;;;;;;;8.73;3.28;;;12.70;99.90;;;;;;5011170;28;20049;-76
2021/08/25 04:06:03;;;;;;;5.68;2.90;;;12.70;99.90;;;;;;4999342;28;20048;-76
2021/08/25 04:08:29;;;;;;;5.35;3.42;;;12.70;99.90;;;;;;4998125;28;20110;-76
2021/08/25 04:10:55;;;;;;;5.30;3.28;;;12.60;99.90;;;;;;4997834;28;20026;-76
2021/08/25 04:13:20;;;;;;;6.60;2.95;;;12.60;99.90;;;;;;5008904;28;20072;-76
2021/08/25 04:15:46;;;;;;;9.75;3.80;;;12.60;99.90;;;;;;5018400;28;20080;-76
2021/08/25 04:18:11;;;;;;;3.97;3.20;;;12.70;99.90;;;;;;4999875;28;20091;-76
2021/08/25 04:20:37;;;;;;;9.88;3.58;;;12.60;99.90;;;;;;5018037;28;20025;-76
2021/08/25 04:23:03;;;;;;;3.60;2.78;;;12.60;99.90;;;;;;5017761;28;20106;-75
2021/08/25 04:25:28;;;;;;;5.55;3.50;;;12.60;99.90;;;;;;5000268;28;20109;-76
2021/08/25 04:27:54;;;;;;;4.85;3.72;;;12.60;99.90;;;;;;5002620;28;20026;-76
2021/08/25 04:30:19;;;;;;;5.32;3.17;;;12.50;99.90;;;;;;4989083;28;20548;-75
2021/08/25 04:32:45;;;;;;;12.82;3.58;;;12.50;99.90;;;;;;4997919;28;20038;-75
2021/08/25 04:35:10;;;;;;;6.40;3.42;;;12.50;99.90;;;;;;4997425;28;20036;-75
2021/08/25 04:37:36;;;;;;;4.80;2.88;;;12.70;99.90;;;;;;4997473;28;20030;-76
2021/08/25 04:40:02;;;;;;;12.85;3.30;;;12.50;99.90;;;;;;4980152;28;20060;-76
2021/08/25 04:42:27;;;;;;;5.65;3.38;;;12.50;99.90;;;;;;5000293;28;20470;-76
2021/08/25 04:44:53;;;;;;;16.40;3.60;;;12.50;99.90;;;;;;5017083;28;20109;-75
2021/08/25 04:47:18;;;;;;;9.60;3.85;;;12.50;99.90;;;;;;4999415;28;20125;-75
2021/08/25 04:49:44;;;;;;;7.38;3.90;;;12.50;99.90;;;;;;5017723;28;20472;-75
2021/08/25 04:52:09;;;;;;;14.68;3.85;;;12.50;99.90;;;;;;5019340;28;20022;-76
2021/08/25 04:54:35;;;;;;;8.93;3.33;;;12.50;99.90;;;;;;5002589;28;20030;-76
2021/08/25 04:57:00;;;;;;;7.05;3.90;;;12.50;99.90;;;;;;5003003;28;20033;-76
2021/08/25 04:59:26;;;;;;;8.48;3.60;;;12.50;99.90;;;;;;5019691;28;20025;-76
2021/08/25 05:01:52;;;;;;;8.57;3.60;;;12.50;99.90;;;;;;5020589;28;20447;-75
2021/08/25 05:04:17;;;;;;;7.20;4.03;;;12.50;99.90;;;;;;5020078;28;20026;-75
2021/08/25 05:06:43;;;;;;;5.07;4.22;;;12.50;99.90;;;;;;5020371;28;20034;-76
2021/08/25 05:09:08;;;;;;;6.45;3.70;;;12.40;99.90;;;;;;5002771;28;20116;-76
2021/08/25 05:11:34;;;;;;;4.95;3.70;;;12.40;99.90;;;;;;5020291;28;20427;-75
2021/08/25 05:13:59;;;;;;;4.65;4.00;;;12.40;99.90;;;;;;5020672;28;20014;-75
2021/08/25 05:16:25;;;;;;;3.85;3.40;;;12.40;99.90;;;;;;5000806;28;20076;-76
2021/08/25 05:18:50;;;;;;;4.38;3.35;;;12.40;99.90;;;;;;5019827;28;20022;-76
2021/08/25 05:21:16;;;;;;;5.05;3.72;;;12.40;99.90;;;;;;5020129;28;20089;-76
2021/08/25 05:23:41;;;;;;;4.70;3.95;;;12.40;99.90;;;;;;5019659;28;20036;-76
2021/08/25 05:26:08;;;;;;;5.43;3.70;;;12.40;99.90;;;;;;5021332;28;20025;-76
2021/08/25 05:28:34;;;;;;;7.40;4.35;;;12.50;99.90;;;;;;5019969;28;20396;-76
2021/08/25 05:31:00;;;;;;;8.30;3.67;;;12.50;99.90;;;;;;5020354;28;20404;-75
2021/08/25 05:33:25;;;;;;;7.07;4.22;;;12.50;99.90;;;;;;5001983;28;20098;-75
2021/08/25 05:35:51;;;;;;;7.72;4.00;;;12.50;99.90;;;;;;5000415;28;20027;-76
2021/08/25 05:38:16;;;;;;;6.03;3.90;;;12.60;99.90;;;;;;5000792;28;20026;-76
2021/08/25 05:40:42;;;;;;;6.50;4.03;;;12.60;99.90;;;;;;4982697;28;20029;-76
2021/08/25 05:43:07;;;;;;;6.03;4.45;;;12.60;99.90;;;;;;4982703;28;20129;-76
2021/08/25 05:45:33;;;;;;;6.40;4.57;;;12.70;99.90;;;;;;4999956;28;20030;-76
2021/08/25 05:47:58;;;;;;;6.22;4.30;;;12.70;99.90;;;;;;4986738;28;20022;-76
2021/08/25 05:50:27;;;;;;;7.38;4.55;;;12.70;99.90;;;;;;5019769;28;20022;-74
2021/08/25 05:52:53;;;;;;;7.30;4.57;;;12.80;99.90;;;;;;5001331;28;20071;-76
2021/08/25 05:55:19;;;;;;;6.80;4.40;;;12.80;99.90;;;;;;5001327;28;20101;-75
2021/08/25 05:57:47;;;;;;;7.00;4.15;;;12.90;99.90;;;;;;5019337;28;20029;-75
2021/08/25 06:00:14;;;;;;;6.93;4.72;;;12.90;99.90;;;;;;5019254;28;20488;-75
2021/08/25 06:02:41;;;;;;;6.10;4.47;;;13.00;99.90;;;;;;5000528;28;20014;-75
2021/08/25 06:05:07;;;;;;;8.13;4.75;;;13.10;99.90;;;;;;5018840;28;20030;-75
2021/08/25 06:07:33;;;;;;;7.60;4.07;;;13.20;99.90;;;;;;5001557;28;20034;-75
2021/08/25 06:10:00;;;;;;;6.72;4.63;;;13.30;99.90;;;;;;5001671;28;20129;-74
2021/08/25 06:12:25;;;;;;;6.00;4.63;;;13.40;99.90;;;;;;5018956;28;20093;-75
2021/08/25 06:14:51;;;;;;;7.40;4.88;;;13.50;99.90;;;;;;5001649;28;20046;-75
2021/08/25 06:17:16;;;;;;;7.50;4.57;;;13.50;99.90;;;;;;5000983;28;20030;-75
2021/08/25 06:19:43;;;;;;;9.68;5.32;;;13.60;99.90;;;;;;5001351;28;20014;-75
2021/08/25 06:22:09;;;;;;;8.90;5.72;;;13.70;99.90;;;;;;5001149;28;20056;-75
2021/08/25 06:24:34;;;;;;;7.28;4.65;;;13.80;99.90;;;;;;5000617;28;20482;-75
2021/08/25 06:27:00;;;;;;;8.23;5.45;;;13.90;99.90;;;;;;5018743;28;20104;-75
2021/08/25 06:29:25;;;;;;;9.95;5.57;;;13.90;99.90;;;;;;5018358;28;20061;-75
2021/08/25 06:31:51;;;;;;;10.48;5.80;;;14.00;99.90;;;;;;5003256;28;20061;-76
2021/08/25 06:34:17;;;;;;;10.00;5.90;;;14.00;99.90;;;;;;4981098;28;20080;-76
2021/08/25 06:36:42;;;;;;;8.48;5.80;;;14.10;99.90;;;;;;4998854;28;20022;-76
2021/08/25 06:39:08;;;;;;;14.77;7.28;;;14.20;99.90;;;;;;4981607;28;20435;-75
2021/08/25 06:41:34;;;;;;;12.27;6.82;;;14.40;99.90;;;;;;4998963;28;20026;-76
2021/08/25 06:44:00;;;;;;;9.05;6.32;;;14.50;99.90;;;;;;4999015;28;20480;-76
2021/08/25 06:46:25;;;;;;;10.95;6.68;;;14.60;99.90;;;;;;5032888;28;20010;-75
2021/08/25 06:48:51;;;;;;;9.77;6.10;;;14.70;99.90;;;;;;5011869;28;20026;-75
2021/08/25 06:51:16;;;;;;;11.43;6.25;;;14.80;99.90;;;;;;5009772;28;20030;-75
2021/08/25 06:53:42;;;;;;;13.40;6.55;;;14.90;99.90;;;;;;4997045;28;20077;-75
2021/08/25 06:56:07;;;;;;;9.13;5.55;;;15.10;99.90;;;;;;4998414;28;20078;-75
2021/08/25 06:58:33;;;;;;;11.60;7.40;;;15.10;99.90;;;;;;4997157;28;20113;-75
2021/08/25 07:00:58;;;;;;;15.05;8.57;;;15.20;99.90;;;;;;4998498;28;20080;-75
2021/08/25 07:03:24;;;;;;;17.85;8.38;;;15.30;99.90;;;;;;4998221;28;20546;-75
2021/08/25 07:05:49;;;;;;;14.70;8.05;;;15.50;99.90;;;;;;5010346;28;20037;-75
2021/08/25 07:08:17;;;;;;;14.90;8.70;;;15.60;99.90;;;;;;4998309;28;20034;-76
2021/08/25 07:10:42;;;;;;;17.75;9.50;;;15.70;99.90;;;;;;4980619;28;20428;-75
2021/08/25 07:13:08;;;;;;;15.48;8.52;;;15.80;99.90;;;;;;4980643;28;20023;-75
2021/08/25 07:15:33;;;;;;;14.43;8.02;;;15.90;99.90;;;;;;4980574;28;20064;-75
2021/08/25 07:17:59;;;;;;;17.05;7.80;;;15.90;99.90;;;;;;5046845;22;20040;-75
2021/08/25 07:20:24;;;;;;;14.98;8.25;;;16.00;99.90;;;;;;5071495;28;20017;-75
2021/08/25 07:22:50;;;;;;;15.43;7.65;;;16.00;99.90;;;;;;5052100;28;20372;-75
2021/08/25 07:25:16;;;;;;;11.32;7.13;;;16.00;99.90;;;;;;5054079;28;20431;-75
2021/08/25 07:27:41;;;;;;;14.98;7.55;;;16.00;99.90;;;;;;5053391;28;20116;-76
2021/08/25 07:30:09;;;;;;;11.25;6.43;;;16.00;99.90;;;;;;5035810;28;20082;-76
2021/08/25 07:32:35;;;;;;;8.48;6.00;;;16.10;99.90;;;;;;5035566;28;20068;-75
2021/08/25 07:35:01;;;;;;;9.57;6.00;;;16.20;99.90;;;;;;5035589;28;20124;-76
2021/08/25 07:37:27;;;;;;;11.82;6.43;;;16.30;99.90;;;;;;5054248;28;20138;-76
2021/08/25 07:39:52;;;;;;;8.70;6.53;;;16.50;99.90;;;;;;5035473;28;20025;-75
2021/08/25 07:42:18;;;;;;;12.82;6.20;;;16.50;99.90;;;;;;5053722;28;20033;-75
2021/08/25 07:44:44;;;;;;;9.73;6.15;;;16.50;99.90;;;;;;5053352;28;20457;-76
2021/08/25 07:47:09;;;;;;;11.50;6.47;;;16.70;99.90;;;;;;5053746;28;20020;-76
2021/08/25 07:49:35;;;;;;;10.07;5.95;;;16.80;99.90;;;;;;5035618;28;20019;-76
2021/08/25 07:52:02;;;;;;;8.73;5.88;;;17.00;99.90;;;;;;5054253;28;20104;-76
2021/08/25 07:54:27;;;;;;;8.15;5.38;;;17.20;99.90;;;;;;5053478;28;20067;-75
2021/08/25 07:56:53;;;;;;;9.60;5.55;;;17.30;99.90;;;;;;5049310;22;20044;-77
2021/08/25 07:59:18;;;;;;;8.27;4.60;;;17.50;99.90;;;;;;5035394;28;20017;-75
2021/08/25 08:01:47;;;;;;;9.70;4.30;;;17.60;99.90;;;;;;5035256;28;20021;-75
2021/08/25 08:04:12;;;;;;;8.27;3.80;;;17.70;99.90;;;;;;5034850;28;20018;-75
2021/08/25 08:06:38;;;;;;;7.90;4.68;;;17.80;99.90;;;;;;5017821;28;20501;-76
2021/08/25 08:09:03;;;;;;;7.75;4.10;;;18.10;99.90;;;;;;5033576;28;20037;-75
2021/08/25 08:11:29;;;;;;;10.82;4.50;;;18.10;99.90;;;;;;5033209;28;20053;-75
2021/08/25 08:13:55;;;;;;;7.57;4.10;;;18.10;99.90;;;;;;5015307;28;20021;-75
2021/08/25 08:16:21;;;;;;;9.30;4.18;;;18.20;99.90;;;;;;5033102;28;20437;-75
2021/08/25 08:19:01;;;;;;;10.57;3.97;;;18.30;99.90;;;;;;5015241;28;20112;-76
2021/08/25 08:21:28;;;;;;;9.73;4.30;;;18.50;99.90;;;;;;5033052;28;20025;-76
2021/08/25 08:23:54;;;;;;;9.10;3.80;;;18.50;99.90;;;;;;5015231;28;20442;-76
2021/08/25 08:26:20;;;;;;;6.43;3.58;;;18.70;99.90;;;;;;5034722;28;20490;-74
2021/08/25 08:28:45;;;;;;;9.35;4.35;;;18.70;99.90;;;;;;5019253;28;20029;-76
2021/08/25 08:31:11;;;;;;;7.00;3.58;;;18.80;99.90;;;;;;5019459;28;20105;-75
2021/08/25 08:33:38;;;;;;;6.70;3.45;;;19.00;99.90;;;;;;5036707;28;20025;-75
2021/08/25 08:36:05;;;;;;;6.47;2.95;;;19.20;99.90;;;;;;5036767;28;20025;-75
2021/08/25 08:38:31;;;;;;;8.98;4.05;;;19.40;99.90;;;;;;5019025;28;20037;-76
2021/08/25 08:40:57;;;;;;;7.07;3.95;;;19.40;99.90;;;;;;5037200;28;20104;-76
2021/08/25 08:43:23;;;;;;;7.75;3.72;;;19.60;99.90;;;;;;5036627;28;20053;-75
2021/08/25 08:45:49;;;;;;;7.95;3.35;;;19.70;99.90;;;;;;5018716;28;20075;-76
2021/08/25 08:48:15;;;;;;;6.00;2.92;;;19.80;99.90;;;;;;5036490;28;20433;-75
2021/08/25 08:50:44;;;;;;;7.13;3.38;;;19.90;99.90;;;;;;5036389;28;20021;-75
2021/08/25 08:53:11;;;;;;;10.02;4.03;;;19.90;99.90;;;;;;5018531;28;20025;-75
2021/08/25 08:55:37;;;;;;;5.97;3.10;;;19.90;99.90;;;;;;5018544;28;20029;-75
2021/08/25 08:58:03;;;;;;;5.05;2.55;;;20.00;99.90;;;;;;5036331;28;20050;-76
2021/08/25 09:00:29;;;;;;;6.57;3.22;;;20.00;99.90;;;;;;5018691;28;20117;-77
2021/08/25 09:02:55;;;;;;;6.50;2.60;;;20.10;99.90;;;;;;5036663;28;20095;-75
2021/08/25 09:05:25;;;;;;;6.20;2.80;;;20.20;99.90;;;;;;5036316;28;20101;-76
2021/08/25 09:07:57;;;;;;;7.70;3.15;;;20.30;99.90;;;;;;5022020;28;20028;-75
2021/08/25 09:10:37;;;;;;;4.38;2.10;;;20.40;99.90;;;;;;5038219;28;20013;-74
2021/08/25 09:13:04;;;;;;;9.30;2.67;;;20.40;99.90;;;;;;5055976;28;20047;-74
2021/08/25 09:15:31;;;;;;;7.88;2.40;;;20.40;99.90;;;;;;5038413;28;20029;-76
2021/08/25 09:18:02;;;;;;;6.13;2.15;;;20.50;99.90;;;;;;5038104;28;20386;-75
2021/08/25 09:20:32;;;;;;;7.20;1.75;;;20.50;99.90;;;;;;5038081;28;20025;-76
2021/08/25 09:23:09;;;;;;;6.13;1.85;;;20.60;99.90;;;;;;5037995;28;20033;-76
2021/08/25 09:25:35;;;;;;;5.00;1.40;;;20.70;99.90;;;;;;5055761;28;20029;-75
2021/08/25 09:28:03;;;;;;;4.80;1.85;;;20.80;99.90;;;;;;5055734;28;20475;-76
2021/08/25 09:30:58;;;;;;;3.38;1.00;;;20.80;99.90;;;;;;5056167;28;20017;-75
2021/08/25 09:33:27;;;;;;;5.20;0.95;;;20.90;99.90;;;;;;5017105;28;20037;-74
2021/08/25 09:35:58;;;;;;;5.03;1.75;;;21.10;99.90;;;;;;5082844;22;20044;-75
2021/08/25 09:38:25;;;;;;;2.88;0.60;;;21.10;99.90;;;;;;5095902;28;20474;-76
2021/08/25 09:40:57;;;;;;;6.10;1.48;;;21.00;99.90;;;;;;5077677;28;20024;-76
2021/08/25 09:43:31;;;;;;;7.00;0.80;;;21.00;99.90;;;;;;5095812;28;20024;-77
2021/08/25 09:46:32;;;;;;;5.72;1.20;;;21.10;99.90;;;;;;5096059;28;20016;-75
2021/08/25 09:49:00;;;;;;;2.95;1.00;;;21.10;99.90;;;;;;5013688;28;20042;-75
2021/08/25 09:51:37;;;;;;;4.13;0.63;;;21.30;99.90;;;;;;5062504;28;20113;-76
2021/08/25 09:54:12;;;;;;;3.47;0.82;;;21.50;99.90;;;;;;5095559;28;20034;-74
2021/08/25 09:56:39;;;;;;;3.90;0.57;;;21.70;99.90;;;;;;5096076;28;20020;-74
2021/08/25 09:59:07;;;;;;;5.70;1.30;;;21.90;99.90;;;;;;5077419;28;20042;-74
2021/08/25 10:01:33;;;;;;;2.23;0.67;;;22.00;99.90;;;;;;5077324;28;20017;-75
2021/08/25 10:04:02;;;;;;;3.13;0.82;;;21.90;99.90;;;;;;5077372;28;20012;-74
2021/08/25 10:06:32;;;;;;;4.00;0.93;;;21.80;99.90;;;;;;5096048;28;20031;-74
2021/08/25 10:08:58;;;;;;;1.15;0.30;;;21.60;99.90;;;;;;5077565;28;20086;-77
2021/08/25 10:12:00;;;;;;;3.03;0.80;;;21.40;99.90;;;;;;5175339;22;20052;-77
2021/08/25 10:14:32;;;;;;;6.22;0.57;;;21.30;99.90;;;;;;5039203;28;20017;-78
2021/08/25 10:17:06;;;;;;;3.35;0.50;;;22.70;99.90;;;;;;5042176;28;20017;-77
2021/08/25 10:19:39;;;;;;;2.05;0.30;;;22.00;99.90;;;;;;5041699;28;20025;-77
2021/08/25 10:22:49;;;;;;;1.88;0.40;;;21.80;99.90;;;;;;5038412;28;20372;-77
2021/08/25 10:25:46;;;;;;;5.53;0.90;;;22.00;99.90;;;;;;5038152;28;20037;-77
2021/08/25 10:28:18;;;;;;;1.85;0.57;;;21.80;99.90;;;;;;5057101;28;20067;-77
2021/08/25 10:30:59;;;;;;;0.73;0.10;;;24.30;99.90;;;;;;5039404;28;20021;-78
2021/08/25 10:33:50;;;;;;;3.17;0.30;;;22.30;99.90;;;;;;5038920;28;20108;-77
2021/08/25 10:36:23;;;;;;;3.78;0.28;;;23.60;99.90;;;;;;5042775;28;20025;-78
2021/08/25 10:38:58;;;;;;;1.80;0.25;;;22.70;99.90;;;;;;5058317;28;20437;-79
2021/08/25 10:41:45;;;;;;;2.85;0.30;;;22.70;98.50;;;;;;5038911;28;20501;-77
2021/08/25 10:44:37;;;;;;;1.67;0.20;;;22.70;98.60;;;;;;5056075;28;20028;-77
2021/08/25 10:49:32;;;;;;;0.77;0.20;;;23.00;99.90;;;;;;5091842;28;20041;-77
2021/08/25 10:52:18;;;;;;;1.25;0.20;;;23.20;99.90;;;;;;5095670;28;20042;-77
2021/08/25 10:54:49;;;;;;;3.17;0.75;;;23.30;99.90;;;;;;5081320;28;20032;-77
2021/08/25 10:57:23;;;;;;;0.90;0.20;;;23.30;98.90;;;;;;5097382;28;20031;-77
2021/08/25 10:59:49;;;;;;;1.33;0.20;;;23.40;98.50;;;;;;5095846;28;20016;-75
2021/08/25 11:02:15;;;;;;;3.33;0.30;;;23.60;98.30;;;;;;5076100;28;20118;-75
2021/08/25 11:04:40;;;;;;;1.70;0.10;;;23.60;96.80;;;;;;5094140;28;20414;-75
2021/08/25 11:07:10;;;;;;;2.47;0.30;;;23.70;98.60;;;;;;5093966;28;20036;-77
2021/08/25 11:09:56;;;;;;;1.10;0.10;;;23.60;92.50;;;;;;5078206;28;20150;-77
2021/08/25 11:12:23;;;;;;;2.25;0.28;;;23.40;90.20;;;;;;5093211;28;20036;-73
2021/08/25 11:14:54;;;;;;;0.75;0.20;;;23.30;91.50;;;;;;5094266;28;20024;-76
2021/08/25 11:17:31;;;;;;;1.00;0.20;;;23.20;94.30;;;;;;5094070;28;20044;-76
2021/08/25 11:20:09;;;;;;;0.85;0.10;;;23.10;95.50;;;;;;5094106;28;20366;-74
2021/08/25 11:22:44;;;;;;;1.85;0.00;;;22.90;96.60;;;;;;5093824;28;20106;-77
2021/08/25 11:25:12;;;;;;;1.13;0.10;;;23.00;98.10;;;;;;5093852;28;20028;-76
2021/08/25 11:27:45;;;;;;;;;;;23.30;96.30;;;;;;5075948;28;20020;-75
2021/08/25 11:30:20;;;;;;;1.95;0.20;;;23.60;96.30;;;;;;5094046;28;19910;-75
2021/08/25 11:33:05;;;;;;;1.42;0.03;;;23.90;94.70;;;;;;5093681;28;20024;-75
2021/08/25 11:35:33;;;;;;;1.33;0.30;;;24.30;96.40;;;;;;5094106;28;20028;-78
2021/08/25 11:38:02;;;;;;;2.45;0.10;;;24.60;95.70;;;;;;5075506;28;20058;-75
2021/08/25 11:40:29;;;;;;;;;;;24.70;93.80;;;;;;5076183;28;20020;-76
2021/08/25 11:42:55;;;;;;;0.43;0.00;;;24.50;92.40;;;;;;5093568;28;19904;-75
2021/08/25 11:45:32;;;;;;;0.98;0.20;;;24.30;94.30;;;;;;5075966;28;20055;-74
2021/08/25 11:48:02;;;;;;;0.57;0.17;;;24.40;94.20;;;;;;5093768;28;20040;-74
2021/08/25 11:50:31;;;;;;;1.38;0.20;;;24.60;92.80;;;;;;5093577;28;20024;-74
2021/08/25 11:52:57;;;;;;;2.05;0.15;;;24.70;92.90;;;;;;5093469;28;20473;-75
2021/08/25 11:55:23;;;;;;;0.93;0.10;;;24.90;92.20;;;;;;5075427;28;20059;-75
2021/08/25 11:57:51;;;;;;;2.08;0.10;;;25.20;93.30;;;;;;5075250;28;20051;-74
2021/08/25 12:00:19;;;;;;;1.02;0.20;;;25.60;90.80;;;;;;5094540;28;20024;-76
2021/08/25 12:02:57;;;;;;;1.48;0.10;;;25.40;89.30;;;;;;5079421;28;20024;-74
2021/08/25 12:05:26;;;;;;;2.63;0.20;;;25.10;90.80;;;;;;5082939;28;20044;-75
2021/08/25 12:08:08;;;;;;;3.60;0.20;;;24.70;92.50;;;;;;5077374;28;20027;-76
2021/08/25 12:11:04;;;;;;;2.03;0.20;;;24.60;94.50;;;;;;5059133;28;20082;-75
2021/08/25 12:13:38;;;;;;;0.28;0.13;;;24.90;95.60;;;;;;5050617;28;20047;-75
2021/08/25 12:16:10;;;;;;;3.35;0.10;;;25.20;92.10;;;;;;5058951;28;20042;-75
2021/08/25 12:18:49;;;;;;;2.33;0.30;;;25.40;91.00;;;;;;5076915;28;20025;-75
2021/08/25 12:21:16;;;;;;;1.25;0.10;;;25.50;86.10;;;;;;5076777;28;20027;-75
2021/08/25 12:24:11;;;;;;;3.03;0.55;;;25.50;84.80;;;;;;5076711;28;20032;-76
2021/08/25 12:26:52;;;;;;;7.82;0.43;;;25.40;86.80;;;;;;5076891;28;20378;-75
2021/08/25 12:29:30;;;;;;;1.02;0.40;;;25.10;89.40;;;;;;5058889;28;20559;-75
2021/08/25 12:31:58;;;;;;;1.95;0.08;;;24.80;90.60;;;;;;5058820;28;20108;-76
2021/08/25 12:34:24;;;;;;;1.53;0.00;;;24.60;91.30;;;;;;5058628;28;20029;-75
2021/08/25 12:36:55;;;;;;;1.83;0.20;;;24.80;91.50;;;;;;5076904;28;20031;-75
2021/08/25 12:39:26;;;;;;;4.03;0.52;;;25.00;90.90;;;;;;5075893;28;20024;-75
2021/08/25 12:41:52;;;;;;;2.47;0.68;;;25.40;92.10;;;;;;5058429;28;20046;-75
2021/08/25 12:44:19;;;;;;;1.05;0.10;;;25.90;90.10;;;;;;5076326;28;20017;-75
2021/08/25 12:46:51;;;;;;;0.77;0.20;;;26.30;85.40;;;;;;5076635;28;20016;-75
2021/08/25 12:49:17;;;;;;;2.45;0.20;;;26.30;81.80;;;;;;5076237;28;20161;-77
2021/08/25 12:51:43;;;;;;;2.10;0.28;;;26.20;82.10;;;;;;5076297;28;20386;-76
2021/08/25 12:54:09;;;;;;;3.00;0.60;;;26.30;81.10;;;;;;5076620;28;20016;-75